createdAt,value
2018-04-23T00:01:23.775Z,6.80
2018-04-23T00:03:51.398Z,6.80
2018-04-23T00:06:19.047Z,6.80
2018-04-23T00:08:46.642Z,6.90
2018-04-23T00:11:14.995Z,6.80
2018-04-23T00:13:42.626Z,6.80
2018-04-23T00:16:10.248Z,6.80
2018-04-23T00:18:37.848Z,6.80
2018-04-23T00:21:05.704Z,6.90
2018-04-23T00:23:33.366Z,6.90
2018-04-23T00:26:00.978Z,6.90
2018-04-23T00:28:29.330Z,7.00
2018-04-23T00:30:56.994Z,7.00
2018-04-23T00:33:24.642Z,7.10
2018-04-23T00:35:52.283Z,7.00
2018-04-23T00:38:19.927Z,7.10
2018-04-23T00:40:47.521Z,7.10
2018-04-23T00:43:15.163Z,7.10
2018-04-23T00:45:42.857Z,7.20
2018-04-23T00:48:10.507Z,7.30
2018-04-23T00:50:38.103Z,7.20
2018-04-23T00:53:17.514Z,7.30
2018-04-23T00:55:45.157Z,7.30
2018-04-23T00:58:13.562Z,7.40
2018-04-23T01:00:41.184Z,7.30
2018-04-23T01:03:08.775Z,7.40
2018-04-23T01:05:36.442Z,7.50
2018-04-23T01:08:04.045Z,7.50
2018-04-23T01:10:31.690Z,7.50
2018-04-23T01:13:00.066Z,7.60
2018-04-23T01:15:28.454Z,7.60
2018-04-23T01:17:56.122Z,7.60
2018-04-23T01:20:23.751Z,7.60
2018-04-23T01:22:51.434Z,7.60
2018-04-23T01:25:19.789Z,7.60
2018-04-23T01:27:47.386Z,7.50
2018-04-23T01:30:14.992Z,7.50
2018-04-23T01:32:42.574Z,7.60
2018-04-23T01:35:10.187Z,7.60
2018-04-23T01:37:37.858Z,7.60
2018-04-23T01:40:05.463Z,7.60
2018-04-23T01:42:33.878Z,7.60
2018-04-23T01:45:01.548Z,7.60
2018-04-23T01:47:29.170Z,7.60
2018-04-23T01:49:57.606Z,7.60
2018-04-23T01:52:25.997Z,7.50
2018-04-23T01:54:53.628Z,7.50
2018-04-23T01:57:21.249Z,7.50
2018-04-23T01:59:49.613Z,7.60
2018-04-23T02:02:17.298Z,7.60
2018-04-23T02:04:45.654Z,7.70
2018-04-23T02:07:14.102Z,7.70
2018-04-23T02:09:41.690Z,7.70
2018-04-23T02:12:09.290Z,7.70
2018-04-23T02:14:36.969Z,7.80
2018-04-23T02:17:04.562Z,7.90
2018-04-23T02:19:32.148Z,8.00
2018-04-23T02:22:00.526Z,8.10
2018-04-23T02:24:28.882Z,8.10
2018-04-23T02:26:56.481Z,8.10
2018-04-23T02:29:24.091Z,8.20
2018-04-23T02:31:51.682Z,8.20
2018-04-23T02:34:20.127Z,8.20
2018-04-23T02:36:47.722Z,8.20
2018-04-23T02:39:16.087Z,8.10
2018-04-23T02:41:43.767Z,8.10
2018-04-23T02:44:12.184Z,8.10
2018-04-23T02:46:39.860Z,8.10
2018-04-23T02:49:07.458Z,8.10
2018-04-23T02:51:35.842Z,8.10
2018-04-23T02:54:04.223Z,8.10
2018-04-23T02:56:31.831Z,8.10
2018-04-23T02:59:00.205Z,8.10
2018-04-23T03:01:27.830Z,8.10
2018-04-23T03:03:56.181Z,8.00
2018-04-23T03:06:23.870Z,8.00
2018-04-23T03:08:51.525Z,8.00
2018-04-23T03:11:19.916Z,8.00
2018-04-23T03:13:47.518Z,8.00
2018-04-23T03:16:15.112Z,8.00
2018-04-23T03:18:43.474Z,7.90
2018-04-23T03:21:11.102Z,7.90
2018-04-23T03:23:38.694Z,7.90
2018-04-23T03:26:06.295Z,7.90
2018-04-23T03:28:33.913Z,7.90
2018-04-23T03:31:01.575Z,7.90
2018-04-23T03:33:29.229Z,7.90
2018-04-23T03:35:58.330Z,7.90
2018-04-23T03:38:25.934Z,7.90
2018-04-23T03:40:53.525Z,7.90
2018-04-23T03:43:21.122Z,7.90
2018-04-23T03:45:48.739Z,7.90
2018-04-23T03:48:16.330Z,7.90
2018-04-23T03:50:43.934Z,7.90
2018-04-23T03:53:11.536Z,7.90
2018-04-23T03:55:39.126Z,7.90
2018-04-23T03:58:07.510Z,7.90
2018-04-23T04:00:35.095Z,7.90
2018-04-23T04:03:02.682Z,7.90
2018-04-23T04:05:30.302Z,8.00
2018-04-23T04:07:57.945Z,8.10
2018-04-23T04:10:26.301Z,8.20
2018-04-23T04:13:05.624Z,8.20
2018-04-23T04:15:44.919Z,8.30
2018-04-23T04:21:13.092Z,8.40
2018-04-23T04:23:41.462Z,8.50
2018-04-23T04:26:09.848Z,8.50
2018-04-23T04:28:37.475Z,8.50
2018-04-23T04:31:05.096Z,8.60
2018-04-23T04:33:32.723Z,8.60
2018-04-23T04:36:00.347Z,8.70
2018-04-23T04:38:27.958Z,8.80
2018-04-23T04:40:56.321Z,8.90
2018-04-23T04:43:24.700Z,9.00
2018-04-23T04:45:52.302Z,9.00
2018-04-23T04:48:19.942Z,9.10
2018-04-23T04:50:47.542Z,9.10
2018-04-23T04:53:15.141Z,9.20
2018-04-23T04:55:43.538Z,9.30
2018-04-23T04:58:11.145Z,9.20
2018-04-23T05:00:38.760Z,9.30
2018-04-23T05:03:06.363Z,9.30
2018-04-23T05:05:33.951Z,9.40
2018-04-23T05:08:02.411Z,9.50
2018-04-23T05:10:30.012Z,9.40
2018-04-23T05:12:58.369Z,9.70
2018-04-23T05:15:26.066Z,9.60
2018-04-23T05:17:54.446Z,9.90
2018-04-23T05:20:22.086Z,9.90
2018-04-23T05:22:49.720Z,10.00
2018-04-23T05:25:17.318Z,10.00
2018-04-23T05:27:45.696Z,10.00
2018-04-23T05:30:13.335Z,10.00
2018-04-23T05:32:41.031Z,10.00
2018-04-23T05:35:08.662Z,10.00
2018-04-23T05:37:36.321Z,9.90
2018-04-23T05:40:03.962Z,9.90
2018-04-23T05:42:31.569Z,9.70
2018-04-23T05:44:59.219Z,9.30
2018-04-23T05:47:28.002Z,9.00
2018-04-23T05:49:55.711Z,9.00
2018-04-23T05:52:23.350Z,9.00
2018-04-23T05:54:50.965Z,9.10
2018-04-23T05:57:18.568Z,9.00
2018-04-23T05:59:46.182Z,8.90
2018-04-23T06:02:13.789Z,8.90
2018-04-23T06:04:41.385Z,8.90
2018-04-23T06:07:09.025Z,8.70
2018-04-23T06:09:36.633Z,8.70
2018-04-23T06:12:04.225Z,8.70
2018-04-23T06:14:31.862Z,8.80
2018-04-23T06:16:59.483Z,8.90
2018-04-23T06:19:27.081Z,9.00
2018-04-23T06:21:55.455Z,9.10
2018-04-23T06:24:23.084Z,9.00
2018-04-23T06:26:50.676Z,9.20
2018-04-23T06:29:19.826Z,9.40
2018-04-23T06:31:47.452Z,9.30
2018-04-23T06:34:15.915Z,9.40
2018-04-23T06:36:43.521Z,9.40
2018-04-23T06:39:11.139Z,9.50
2018-04-23T06:41:38.791Z,9.50
2018-04-23T06:44:06.398Z,9.60
2018-04-23T06:46:34.031Z,9.60
2018-04-23T06:49:02.415Z,9.70
2018-04-23T06:51:30.160Z,9.70
2018-04-23T06:53:58.526Z,9.80
2018-04-23T06:56:26.151Z,9.80
2018-04-23T06:58:53.773Z,9.80
2018-04-23T07:01:22.136Z,9.90
2018-04-23T07:03:50.586Z,10.00
2018-04-23T07:06:18.207Z,9.90
2018-04-23T07:08:45.808Z,10.00
2018-04-23T07:11:13.438Z,10.10
2018-04-23T07:13:41.079Z,10.20
2018-04-23T07:16:08.718Z,10.20
2018-04-23T07:18:37.127Z,10.30
2018-04-23T07:21:04.802Z,10.20
2018-04-23T07:23:33.018Z,10.30
2018-04-23T07:26:00.619Z,10.30
2018-04-23T07:28:28.230Z,10.30
2018-04-23T07:30:55.846Z,10.30
2018-04-23T07:33:23.458Z,10.30
2018-04-23T07:35:51.120Z,10.30
2018-04-23T07:38:18.724Z,10.30
2018-04-23T07:40:46.338Z,10.30
2018-04-23T07:43:14.810Z,10.40
2018-04-23T07:45:42.501Z,10.40
2018-04-23T07:48:10.881Z,10.50
2018-04-23T07:50:39.278Z,10.50
2018-04-23T07:53:06.971Z,10.40
2018-04-23T07:55:34.634Z,10.40
2018-04-23T07:58:02.321Z,10.50
2018-04-23T08:00:29.942Z,10.50
2018-04-23T08:02:57.550Z,10.50
2018-04-23T08:05:25.202Z,10.50
2018-04-23T08:07:52.828Z,10.50
2018-04-23T08:10:20.430Z,10.50
2018-04-23T08:12:48.839Z,10.40
2018-04-23T08:15:16.483Z,10.40
2018-04-23T08:17:44.919Z,10.30
2018-04-23T08:20:12.551Z,10.30
2018-04-23T08:22:40.166Z,10.30
2018-04-23T08:25:07.770Z,10.30
2018-04-23T08:27:35.533Z,10.20
2018-04-23T08:30:03.155Z,10.20
2018-04-23T08:32:30.797Z,10.10
2018-04-23T08:34:58.421Z,10.20
2018-04-23T08:37:26.057Z,10.20
2018-04-23T08:39:54.525Z,10.10
2018-04-23T08:42:22.170Z,10.10
2018-04-23T08:44:49.802Z,10.10
2018-04-23T08:47:17.398Z,9.90
2018-04-23T08:49:45.017Z,9.90
2018-04-23T08:52:12.611Z,9.80
2018-04-23T08:54:40.245Z,9.90
2018-04-23T08:57:07.875Z,9.90
2018-04-23T08:59:35.490Z,9.90
2018-04-23T09:02:03.106Z,10.00
2018-04-23T09:04:30.718Z,9.90
2018-04-23T09:06:58.328Z,9.90
2018-04-23T09:09:25.930Z,9.90
2018-04-23T09:11:53.542Z,9.90
2018-04-23T09:14:21.141Z,9.90
2018-04-23T09:16:49.529Z,10.00
2018-04-23T09:19:17.217Z,9.90
2018-04-23T09:21:44.854Z,10.00
2018-04-23T09:24:12.471Z,10.00
2018-04-23T09:26:40.223Z,10.10
2018-04-23T09:29:07.851Z,10.10
2018-04-23T09:31:35.571Z,10.10
2018-04-23T09:34:03.922Z,10.20
2018-04-23T09:36:31.589Z,10.10
2018-04-23T09:38:59.271Z,10.20
2018-04-23T09:41:26.993Z,10.30
2018-04-23T09:43:55.378Z,10.60
2018-04-23T09:46:23.743Z,10.90
2018-04-23T09:48:52.175Z,11.20
2018-04-23T09:51:19.782Z,11.10
2018-04-23T09:53:47.417Z,11.50
2018-04-23T09:56:15.026Z,12.10
2018-04-23T09:58:43.409Z,12.40
2018-04-23T10:01:16.636Z,12.40
2018-04-23T10:03:44.243Z,12.60
2018-04-23T10:06:12.633Z,12.60
2018-04-23T10:08:41.038Z,12.40
2018-04-23T10:11:08.680Z,12.40
2018-04-23T10:13:36.287Z,12.50
2018-04-23T10:16:03.905Z,12.30
2018-04-23T10:18:31.507Z,12.50
2018-04-23T10:20:59.143Z,12.50
2018-04-23T10:23:26.762Z,12.30
2018-04-23T10:25:55.138Z,12.50
2018-04-23T10:28:23.506Z,12.70
2018-04-23T10:30:51.123Z,12.60
2018-04-23T10:33:19.878Z,13.10
2018-04-23T10:35:48.251Z,13.20
2018-04-23T10:38:16.634Z,12.90
2018-04-23T10:40:45.010Z,13.20
2018-04-23T10:43:12.695Z,13.20
2018-04-23T10:45:40.323Z,13.30
2018-04-23T10:48:07.928Z,13.20
2018-04-23T10:50:35.530Z,13.40
2018-04-23T10:53:03.187Z,13.50
2018-04-23T10:55:30.825Z,13.70
2018-04-23T10:57:58.426Z,13.40
2018-04-23T11:00:27.226Z,13.10
2018-04-23T11:02:55.614Z,13.20
2018-04-23T11:05:23.210Z,13.00
2018-04-23T11:07:50.849Z,12.80
2018-04-23T11:10:18.442Z,12.90
2018-04-23T11:12:46.045Z,12.80
2018-04-23T11:17:42.605Z,13.30
2018-04-23T11:20:10.203Z,13.30
2018-04-23T11:22:37.827Z,13.00
2018-04-23T11:25:05.439Z,13.20
2018-04-23T11:27:33.041Z,13.10
2018-04-23T11:30:01.424Z,13.40
2018-04-23T11:32:29.060Z,13.30
2018-04-23T11:34:56.703Z,13.20
2018-04-23T11:37:24.322Z,13.30
2018-04-23T11:39:51.918Z,13.30
2018-04-23T11:42:20.650Z,14.10
2018-04-23T11:44:48.298Z,14.60
2018-04-23T11:47:15.942Z,14.60
2018-04-23T11:49:43.628Z,15.00
2018-04-23T11:52:12.019Z,14.50
2018-04-23T11:54:39.622Z,14.50
2018-04-23T11:57:07.225Z,14.50
2018-04-23T11:59:35.619Z,14.50
2018-04-23T12:02:03.220Z,14.50
2018-04-23T12:04:30.868Z,14.10
2018-04-23T12:06:58.495Z,13.90
2018-04-23T12:09:26.126Z,14.00
2018-04-23T12:11:53.734Z,14.10
2018-04-23T12:14:21.366Z,14.00
2018-04-23T12:16:49.899Z,14.00
2018-04-23T12:19:17.514Z,14.10
2018-04-23T12:21:45.999Z,14.00
2018-04-23T12:24:13.598Z,14.00
2018-04-23T12:26:41.210Z,14.20
2018-04-23T12:29:08.886Z,14.30
2018-04-23T12:31:36.535Z,14.20
2018-04-23T12:34:04.907Z,14.60
2018-04-23T12:36:33.352Z,14.40
2018-04-23T12:39:01.008Z,14.40
2018-04-23T12:41:28.648Z,14.20
2018-04-23T12:43:56.262Z,14.10
2018-04-23T12:46:24.622Z,14.00
2018-04-23T12:48:52.266Z,14.00
2018-04-23T12:51:19.871Z,13.90
2018-04-23T12:53:48.254Z,13.50
2018-04-23T12:56:15.858Z,13.50
2018-04-23T12:58:43.489Z,13.50
2018-04-23T13:01:11.274Z,14.20
2018-04-23T13:03:39.653Z,15.90
2018-04-23T13:06:07.291Z,15.90
2018-04-23T13:08:34.898Z,15.70
2018-04-23T13:11:02.558Z,17.00
2018-04-23T13:13:30.175Z,17.00
2018-04-23T13:15:57.782Z,17.80
2018-04-23T13:18:25.401Z,20.20
2018-04-23T13:20:53.050Z,21.90
2018-04-23T13:23:21.431Z,20.30
2018-04-23T13:25:49.040Z,20.40
2018-04-23T13:28:16.654Z,21.60
2018-04-23T13:30:44.339Z,20.00
2018-04-23T13:33:12.020Z,19.00
2018-04-23T13:35:39.661Z,18.10
2018-04-23T13:38:07.262Z,17.60
2018-04-23T13:40:34.866Z,17.90
2018-04-23T13:43:02.482Z,18.20
2018-04-23T13:45:30.327Z,16.80
2018-04-23T13:47:57.922Z,16.40
2018-04-23T13:50:26.333Z,15.50
2018-04-23T13:52:53.937Z,15.40
2018-04-23T13:55:21.586Z,15.10
2018-04-23T13:57:49.299Z,14.90
2018-04-23T14:00:16.992Z,14.80
2018-04-23T14:02:44.601Z,14.90
2018-04-23T14:05:12.240Z,14.80
2018-04-23T14:07:39.960Z,14.70
2018-04-23T14:10:07.626Z,14.60
2018-04-23T14:12:35.304Z,14.70
2018-04-23T14:15:03.032Z,14.60
2018-04-23T14:17:30.662Z,14.60
2018-04-23T14:19:58.274Z,14.80
2018-04-23T14:25:24.692Z,16.10
2018-04-23T14:27:53.054Z,16.40
2018-04-23T14:30:20.738Z,16.30
2018-04-23T14:32:48.370Z,16.80
2018-04-23T14:35:16.101Z,17.60
2018-04-23T14:37:43.741Z,17.80
2018-04-23T14:40:11.354Z,18.70
2018-04-23T14:42:38.959Z,19.70
2018-04-23T14:45:06.561Z,18.80
2018-04-23T14:47:34.181Z,18.30
2018-04-23T14:50:01.806Z,17.90
2018-04-23T14:52:29.420Z,17.50
2018-04-23T14:54:57.029Z,16.90
2018-04-23T14:57:24.647Z,16.30
2018-04-23T14:59:52.296Z,16.10
2018-04-23T15:02:20.058Z,15.60
2018-04-23T15:04:47.742Z,16.00
2018-04-23T15:07:15.422Z,16.50
2018-04-23T15:09:43.034Z,17.10
2018-04-23T15:12:10.716Z,17.50
2018-04-23T15:14:38.311Z,16.80
2018-04-23T15:17:05.943Z,16.80
2018-04-23T15:19:33.626Z,16.80
2018-04-23T15:22:01.385Z,16.70
2018-04-23T15:24:29.794Z,16.50
2018-04-23T15:26:58.336Z,16.00
2018-04-23T15:29:26.010Z,16.00
2018-04-23T15:31:53.630Z,15.60
2018-04-23T15:34:21.227Z,15.30
2018-04-23T15:36:49.686Z,15.00
2018-04-23T15:39:17.376Z,14.70
2018-04-23T15:41:45.135Z,14.60
2018-04-23T15:44:12.753Z,14.50
2018-04-23T15:46:40.391Z,14.30
2018-04-23T15:49:08.022Z,14.20
2018-04-23T15:51:35.648Z,13.90
2018-04-23T15:54:03.282Z,13.80
2018-04-23T15:56:31.653Z,13.50
2018-04-23T15:58:59.421Z,13.50
2018-04-23T16:01:27.042Z,13.40
2018-04-23T16:03:54.645Z,13.20
2018-04-23T16:06:23.027Z,13.10
2018-04-23T16:08:52.278Z,13.10
2018-04-23T16:11:19.882Z,13.10
2018-04-23T16:13:47.475Z,13.10
2018-04-23T16:16:15.110Z,13.10
2018-04-23T16:18:42.705Z,13.10
2018-04-23T16:21:10.315Z,13.20
2018-04-23T16:23:38.691Z,13.10
2018-04-23T16:26:07.122Z,13.00
2018-04-23T16:28:34.716Z,13.00
2018-04-23T16:31:03.094Z,13.10
2018-04-23T16:33:31.468Z,13.00
2018-04-23T16:35:59.877Z,12.90
2018-04-23T16:38:27.503Z,12.80
2018-04-23T16:40:55.099Z,12.60
2018-04-23T16:43:22.709Z,12.50
2018-04-23T16:45:50.318Z,12.40
2018-04-23T16:48:19.053Z,12.30
2018-04-23T16:50:46.694Z,12.30
2018-04-23T16:53:15.439Z,12.30
2018-04-23T16:55:43.811Z,12.20
2018-04-23T16:58:12.216Z,12.20
2018-04-23T17:00:39.836Z,12.10
2018-04-23T17:03:07.438Z,12.20
2018-04-23T17:05:35.046Z,12.10
2018-04-23T17:08:02.695Z,12.00
2018-04-23T17:10:30.303Z,12.00
2018-04-23T17:12:58.096Z,11.90
2018-04-23T17:15:25.721Z,11.80
2018-04-23T17:17:54.456Z,11.80
2018-04-23T17:20:22.065Z,11.80
2018-04-23T17:22:50.479Z,11.70
2018-04-23T17:25:18.174Z,11.70
2018-04-23T17:27:45.811Z,11.80
2018-04-23T17:30:13.440Z,11.70
2018-04-23T17:32:41.810Z,11.50
2018-04-23T17:35:10.188Z,11.30
2018-04-23T17:37:38.568Z,11.30
2018-04-23T17:40:06.934Z,11.30
2018-04-23T17:42:35.306Z,11.20
2018-04-23T17:45:04.681Z,11.20
2018-04-23T17:47:32.311Z,11.20
2018-04-23T17:49:59.942Z,11.20
2018-04-23T17:52:28.331Z,11.20
2018-04-23T17:54:56.763Z,11.10
2018-04-23T17:57:24.372Z,11.10
2018-04-23T17:59:52.770Z,11.10
2018-04-23T18:02:20.379Z,11.10
2018-04-23T18:04:47.998Z,11.10
2018-04-23T18:07:15.671Z,11.00
2018-04-23T18:09:44.048Z,11.00
2018-04-23T18:12:12.426Z,11.00
2018-04-23T18:14:40.055Z,11.00
2018-04-23T18:17:07.734Z,10.90
2018-04-23T18:19:35.371Z,11.00
2018-04-23T18:22:03.818Z,10.90
2018-04-23T18:24:32.215Z,10.80
2018-04-23T18:27:00.619Z,10.80
2018-04-23T18:29:28.286Z,10.80
2018-04-23T18:31:55.904Z,10.80
2018-04-23T18:34:24.499Z,10.90
2018-04-23T18:36:52.960Z,10.80
2018-04-23T18:39:20.563Z,10.80
2018-04-23T18:41:48.175Z,10.80
2018-04-23T18:44:15.811Z,10.80
2018-04-23T18:46:43.594Z,10.80
2018-04-23T18:49:11.190Z,10.70
2018-04-23T18:51:38.802Z,10.70
2018-04-23T18:54:06.471Z,10.70
2018-04-23T18:56:34.083Z,10.70
2018-04-23T18:59:02.774Z,10.70
2018-04-23T19:01:30.407Z,10.70
2018-04-23T19:03:58.785Z,10.60
2018-04-23T19:06:26.401Z,10.60
2018-04-23T19:08:54.028Z,10.60
2018-04-23T19:11:21.685Z,10.60
2018-04-23T19:13:49.334Z,10.60
2018-04-23T19:16:16.945Z,10.50
2018-04-23T19:18:44.543Z,10.50
2018-04-23T19:21:12.205Z,10.60
2018-04-23T19:23:39.831Z,10.40
2018-04-23T19:26:07.449Z,10.50
2018-04-23T19:28:35.067Z,10.50
2018-04-23T19:31:02.670Z,10.40
2018-04-23T19:33:31.071Z,10.40
2018-04-23T19:35:58.704Z,10.40
2018-04-23T19:38:26.325Z,10.30
2018-04-23T19:40:53.936Z,10.30
2018-04-23T19:43:22.318Z,10.30
2018-04-23T19:45:49.914Z,10.30
2018-04-23T19:48:17.522Z,10.30
2018-04-23T19:50:45.167Z,10.20
2018-04-23T19:53:12.810Z,10.20
2018-04-23T19:55:41.559Z,10.20
2018-04-23T19:58:09.170Z,10.20
2018-04-23T20:00:36.779Z,10.20
2018-04-23T20:03:04.456Z,10.20
2018-04-23T20:05:33.210Z,10.10
2018-04-23T20:08:00.881Z,10.10
2018-04-23T20:10:28.518Z,10.10
2018-04-23T20:12:56.922Z,10.10
2018-04-23T20:15:26.079Z,10.00
2018-04-23T20:17:53.706Z,10.00
2018-04-23T20:20:21.330Z,10.10
2018-04-23T20:22:48.945Z,10.10
2018-04-23T20:25:16.587Z,10.10
2018-04-23T20:27:44.243Z,10.00
2018-04-23T20:30:11.847Z,10.00
2018-04-23T20:32:39.484Z,10.10
2018-04-23T20:35:07.112Z,10.10
2018-04-23T20:37:34.718Z,10.00
2018-04-23T20:40:02.391Z,10.10
2018-04-23T20:42:30.827Z,10.00
2018-04-23T20:44:58.438Z,10.00
2018-04-23T20:47:26.802Z,10.00
2018-04-23T20:49:54.421Z,10.00
2018-04-23T20:52:22.022Z,9.90
2018-04-23T20:54:49.641Z,10.00
2018-04-23T20:57:17.283Z,10.00
2018-04-23T20:59:44.902Z,10.00
2018-04-23T21:02:12.515Z,10.00
2018-04-23T21:04:40.197Z,9.90
2018-04-23T21:09:43.490Z,9.90
2018-04-23T21:12:11.097Z,9.90
2018-04-23T21:14:38.703Z,9.90
2018-04-23T21:17:06.348Z,9.90
2018-04-23T21:19:33.967Z,9.90
2018-04-23T21:22:01.594Z,9.90
2018-04-23T21:24:29.212Z,9.90
2018-04-23T21:26:57.581Z,9.80
2018-04-23T21:29:25.178Z,9.80
2018-04-23T21:31:52.798Z,9.80
2018-04-23T21:34:20.423Z,9.80
2018-04-23T21:36:48.026Z,9.80
2018-04-23T21:39:16.474Z,9.80
2018-04-23T21:41:44.071Z,9.70
2018-04-23T21:44:12.463Z,9.80
2018-04-23T21:46:40.124Z,9.80
2018-04-23T21:49:08.503Z,9.80
2018-04-23T21:51:36.878Z,9.70
2018-04-23T21:54:04.510Z,9.70
2018-04-23T21:56:32.114Z,9.70
2018-04-23T21:58:59.722Z,9.70
2018-04-23T22:01:27.342Z,9.70
2018-04-23T22:03:54.959Z,9.60
2018-04-23T22:06:22.571Z,9.60
2018-04-23T22:08:50.178Z,9.70
2018-04-23T22:11:17.792Z,9.60
2018-04-23T22:13:45.386Z,9.60
2018-04-23T22:16:13.815Z,9.60
2018-04-23T22:18:41.409Z,9.60
2018-04-23T22:21:09.016Z,9.60
2018-04-23T22:23:36.630Z,9.60
2018-04-23T22:26:04.253Z,9.50
2018-04-23T22:28:32.626Z,9.40
2018-04-23T22:31:00.274Z,9.30
2018-04-23T22:33:27.890Z,9.30
2018-04-23T22:35:55.510Z,9.20
2018-04-23T22:38:23.903Z,9.00
2018-04-23T22:40:51.498Z,9.00
2018-04-23T22:43:19.102Z,8.90
2018-04-23T22:45:47.492Z,8.60
2018-04-23T22:48:15.123Z,8.60
2018-04-23T22:50:42.743Z,8.80
2018-04-23T22:53:10.358Z,8.60
2018-04-23T22:55:37.967Z,8.60
2018-04-23T22:58:06.334Z,8.50
2018-04-23T23:00:33.944Z,8.50
2018-04-23T23:03:01.553Z,8.50
2018-04-23T23:05:29.148Z,8.40
2018-04-23T23:07:56.762Z,8.40
2018-04-23T23:10:24.377Z,8.30
2018-04-23T23:12:52.813Z,8.10
2018-04-23T23:15:20.414Z,8.10
2018-04-23T23:17:48.011Z,7.90
2018-04-23T23:20:16.763Z,7.80
2018-04-23T23:22:44.387Z,7.80
2018-04-23T23:25:12.015Z,7.90
2018-04-23T23:27:39.616Z,7.80
2018-04-23T23:30:07.222Z,7.70
2018-04-23T23:32:35.590Z,7.60
2018-04-23T23:35:03.967Z,7.60
2018-04-23T23:37:31.606Z,7.60
2018-04-23T23:39:59.222Z,7.60
2018-04-23T23:42:26.819Z,7.60
2018-04-23T23:44:54.442Z,7.60
2018-04-23T23:47:22.039Z,7.60
2018-04-23T23:49:49.634Z,7.60
2018-04-23T23:52:18.010Z,7.50
2018-04-23T23:54:46.374Z,7.60
2018-04-23T23:57:13.977Z,7.50
2018-04-23T23:59:41.670Z,7.50
